createdAt,value
2024-02-24T00:00:28.430Z,979.94
2024-02-24T00:01:28.438Z,979.93
2024-02-24T00:02:28.507Z,979.94
2024-02-24T00:03:28.428Z,980.00
2024-02-24T00:04:28.520Z,980.01
2024-02-24T00:05:28.481Z,979.94
2024-02-24T00:06:28.434Z,979.94
2024-02-24T00:07:28.440Z,980.03
2024-02-24T00:08:28.413Z,979.99
2024-02-24T00:09:28.428Z,979.96
2024-02-24T00:10:28.420Z,979.92
2024-02-24T00:11:28.453Z,979.95
2024-02-24T00:12:28.352Z,980.03
2024-02-24T00:13:30.116Z,979.99
2024-02-24T00:14:28.391Z,979.94
2024-02-24T00:15:28.357Z,979.97
2024-02-24T00:16:28.407Z,979.99
2024-02-24T00:17:28.382Z,980.00
2024-02-24T00:18:28.365Z,979.92
2024-02-24T00:19:28.405Z,979.97
2024-02-24T00:20:28.451Z,979.96
2024-02-24T00:21:28.683Z,980.01
2024-02-24T00:22:28.318Z,980.02
2024-02-24T00:23:28.340Z,980.02
2024-02-24T00:24:28.285Z,979.98
2024-02-24T00:25:30.170Z,979.96
2024-02-24T00:26:28.299Z,980.00
2024-02-24T00:27:28.256Z,980.00
2024-02-24T00:28:28.295Z,980.02
2024-02-24T00:29:28.309Z,979.97
2024-02-24T00:30:28.261Z,980.03
2024-02-24T00:31:28.234Z,980.03
2024-02-24T00:32:28.290Z,980.03
2024-02-24T00:33:28.328Z,979.97
2024-02-24T00:34:28.355Z,980.03
2024-02-24T00:35:28.284Z,979.97
2024-02-24T00:36:28.205Z,979.99
2024-02-24T00:37:28.230Z,979.98
2024-02-24T00:38:28.225Z,979.94
2024-02-24T00:39:28.224Z,979.98
2024-02-24T00:40:28.204Z,979.97
2024-02-24T00:41:28.267Z,979.91
2024-02-24T00:42:28.194Z,979.97
2024-02-24T00:43:28.163Z,979.90
2024-02-24T00:44:28.165Z,979.96
2024-02-24T00:45:28.176Z,979.94
2024-02-24T00:46:28.154Z,979.95
2024-02-24T00:47:28.228Z,979.93
2024-02-24T00:48:28.197Z,979.97
2024-02-24T00:49:28.181Z,979.90
2024-02-24T00:50:28.125Z,979.97
2024-02-24T00:51:28.124Z,979.95
2024-02-24T00:52:28.129Z,979.98
2024-02-24T00:53:28.170Z,979.99
2024-02-24T00:54:28.100Z,979.89
2024-02-24T00:55:28.088Z,979.88
2024-02-24T00:56:28.096Z,979.98
2024-02-24T00:57:28.098Z,979.97
2024-02-24T00:58:28.071Z,979.97
2024-02-24T00:59:28.130Z,979.91
2024-02-24T01:00:28.071Z,979.94
2024-02-24T01:01:28.137Z,979.86
2024-02-24T01:02:28.098Z,979.89
2024-02-24T01:03:28.037Z,979.93
2024-02-24T01:04:28.122Z,979.90
2024-02-24T01:05:28.124Z,979.89
2024-02-24T01:06:28.015Z,979.93
2024-02-24T01:07:28.095Z,979.88
2024-02-24T01:08:28.098Z,980.00
2024-02-24T01:09:28.155Z,979.91
2024-02-24T01:10:28.065Z,979.94
2024-02-24T01:11:28.029Z,980.01
2024-02-24T01:12:28.366Z,979.93
2024-02-24T01:13:27.997Z,979.95
2024-02-24T01:14:29.020Z,979.90
2024-02-24T01:15:28.026Z,979.91
2024-02-24T01:16:27.944Z,979.94
2024-02-24T01:17:28.039Z,979.91
2024-02-24T01:18:28.035Z,979.91
2024-02-24T01:19:27.936Z,979.88
2024-02-24T01:20:27.978Z,979.92
2024-02-24T01:21:27.949Z,980.03
2024-02-24T01:22:27.917Z,980.02
2024-02-24T01:23:27.941Z,979.98
2024-02-24T01:24:27.945Z,980.04
2024-02-24T01:25:27.904Z,980.00
2024-02-24T01:26:27.927Z,980.00
2024-02-24T01:27:27.889Z,980.02
2024-02-24T01:28:27.869Z,980.09
2024-02-24T01:29:27.963Z,980.04
2024-02-24T01:30:27.933Z,980.03
2024-02-24T01:31:27.886Z,980.02
2024-02-24T01:32:27.980Z,980.07
2024-02-24T01:33:27.904Z,980.06
2024-02-24T01:34:27.992Z,980.04
2024-02-24T01:35:27.879Z,979.98
2024-02-24T01:36:27.832Z,979.95
2024-02-24T01:37:27.807Z,980.00
2024-02-24T01:38:27.849Z,980.00
2024-02-24T01:39:27.828Z,980.02
2024-02-24T01:40:27.800Z,980.00
2024-02-24T01:41:27.839Z,980.02
2024-02-24T01:42:27.789Z,980.00
2024-02-24T01:43:27.769Z,980.01
2024-02-24T01:44:27.803Z,979.93
2024-02-24T01:45:27.789Z,979.93
2024-02-24T01:46:27.764Z,979.89
2024-02-24T01:47:27.821Z,979.86
2024-02-24T01:48:27.843Z,979.92
2024-02-24T01:49:27.836Z,979.95
2024-02-24T01:50:27.794Z,979.88
2024-02-24T01:51:27.730Z,979.90
2024-02-24T01:52:27.729Z,979.91
2024-02-24T01:53:27.738Z,979.92
2024-02-24T01:54:27.751Z,979.91
2024-02-24T01:55:27.710Z,979.91
2024-02-24T01:56:27.728Z,979.92
2024-02-24T01:57:27.725Z,979.92
2024-02-24T01:58:27.734Z,979.98
2024-02-24T01:59:27.793Z,979.97
2024-02-24T02:00:27.662Z,979.93
2024-02-24T02:01:27.654Z,979.97
2024-02-24T02:02:27.701Z,979.99
2024-02-24T02:03:27.658Z,979.98
2024-02-24T02:04:27.697Z,979.98
2024-02-24T02:05:27.715Z,980.00
2024-02-24T02:06:27.679Z,979.96
2024-02-24T02:07:27.678Z,979.89
2024-02-24T02:08:27.646Z,980.01
2024-02-24T02:09:28.640Z,980.01
2024-02-24T02:10:27.588Z,980.04
2024-02-24T02:11:27.653Z,980.02
2024-02-24T02:12:27.745Z,980.10
2024-02-24T02:13:27.661Z,980.05
2024-02-24T02:14:27.633Z,980.02
2024-02-24T02:15:27.564Z,980.05
2024-02-24T02:16:27.576Z,980.01
2024-02-24T02:17:27.620Z,980.08
2024-02-24T02:18:29.634Z,980.09
2024-02-24T02:19:27.584Z,980.13
2024-02-24T02:20:27.581Z,980.10
2024-02-24T02:21:28.169Z,980.08
2024-02-24T02:22:27.519Z,980.18
2024-02-24T02:23:27.611Z,980.08
2024-02-24T02:24:27.547Z,980.17
2024-02-24T02:25:27.542Z,980.14
2024-02-24T02:26:27.545Z,980.15
2024-02-24T02:27:27.500Z,980.13
2024-02-24T02:28:27.487Z,980.15
2024-02-24T02:29:27.552Z,980.11
2024-02-24T02:30:27.470Z,980.21
2024-02-24T02:31:28.306Z,980.21
2024-02-24T02:32:27.532Z,980.25
2024-02-24T02:33:27.609Z,980.15
2024-02-24T02:34:27.484Z,980.16
2024-02-24T02:35:27.509Z,980.17
2024-02-24T02:36:27.453Z,980.19
2024-02-24T02:37:27.470Z,980.17
2024-02-24T02:38:27.456Z,980.12
2024-02-24T02:39:27.422Z,980.18
2024-02-24T02:40:27.460Z,980.18
2024-02-24T02:41:27.421Z,980.16
2024-02-24T02:42:27.368Z,980.10
2024-02-24T02:43:27.379Z,980.19
2024-02-24T02:44:27.395Z,980.20
2024-02-24T02:45:27.384Z,980.16
2024-02-24T02:46:27.393Z,980.21
2024-02-24T02:47:27.485Z,980.20
2024-02-24T02:48:27.476Z,980.15
2024-02-24T02:49:28.373Z,980.20
2024-02-24T02:50:27.441Z,980.23
2024-02-24T02:51:27.325Z,980.19
2024-02-24T02:52:27.326Z,980.23
2024-02-24T02:53:27.355Z,980.30
2024-02-24T02:54:27.317Z,980.26
2024-02-24T02:55:27.393Z,980.29
2024-02-24T02:56:27.366Z,980.27
2024-02-24T02:57:27.311Z,980.27
2024-02-24T02:58:27.275Z,980.31
2024-02-24T02:59:27.301Z,980.33
2024-02-24T03:00:27.308Z,980.31
2024-02-24T03:01:27.376Z,980.32
2024-02-24T03:02:27.321Z,980.33
2024-02-24T03:03:27.284Z,980.32
2024-02-24T03:04:27.268Z,980.29
2024-02-24T03:05:27.291Z,980.30
2024-02-24T03:06:27.264Z,980.26
2024-02-24T03:07:27.283Z,980.30
2024-02-24T03:08:27.250Z,980.28
2024-02-24T03:09:27.200Z,980.28
2024-02-24T03:10:27.274Z,980.28
2024-02-24T03:11:27.281Z,980.33
2024-02-24T03:12:27.296Z,980.38
2024-02-24T03:13:27.214Z,980.35
2024-02-24T03:14:27.250Z,980.36
2024-02-24T03:15:27.188Z,980.43
2024-02-24T03:16:28.163Z,980.38
2024-02-24T03:17:27.219Z,980.46
2024-02-24T03:18:27.277Z,980.43
2024-02-24T03:19:27.219Z,980.43
2024-02-24T03:20:27.193Z,980.47
2024-02-24T03:21:27.167Z,980.43
2024-02-24T03:22:27.145Z,980.43
2024-02-24T03:23:27.142Z,980.43
2024-02-24T03:24:27.187Z,980.45
2024-02-24T03:25:27.122Z,980.41
2024-02-24T03:26:27.148Z,980.38
2024-02-24T03:27:27.111Z,980.47
2024-02-24T03:28:27.095Z,980.46
2024-02-24T03:29:27.105Z,980.57
2024-02-24T03:30:27.122Z,980.55
2024-02-24T03:31:27.092Z,980.58
2024-02-24T03:32:27.154Z,980.61
2024-02-24T03:33:27.155Z,980.52
2024-02-24T03:34:27.116Z,980.57
2024-02-24T03:35:27.076Z,980.52
2024-02-24T03:36:27.030Z,980.53
2024-02-24T03:37:27.024Z,980.53
2024-02-24T03:38:27.099Z,980.59
2024-02-24T03:39:27.038Z,980.55
2024-02-24T03:40:27.043Z,980.57
2024-02-24T03:41:27.047Z,980.51
2024-02-24T03:42:26.989Z,980.54
2024-02-24T03:43:26.986Z,980.51
2024-02-24T03:44:27.012Z,980.49
2024-02-24T03:45:27.059Z,980.45
2024-02-24T03:46:26.981Z,980.49
2024-02-24T03:47:27.063Z,980.52
2024-02-24T03:48:27.050Z,980.44
2024-02-24T03:49:27.138Z,980.49
2024-02-24T03:50:26.986Z,980.49
2024-02-24T03:51:26.958Z,980.55
2024-02-24T03:52:26.949Z,980.56
2024-02-24T03:53:26.982Z,980.57
2024-02-24T03:54:26.942Z,980.52
2024-02-24T03:55:26.920Z,980.52
2024-02-24T03:56:26.974Z,980.50
2024-02-24T03:57:26.918Z,980.53
2024-02-24T03:58:26.887Z,980.52
2024-02-24T03:59:26.917Z,980.57
2024-02-24T04:00:26.872Z,980.63
2024-02-24T04:01:26.878Z,980.61
2024-02-24T04:02:26.935Z,980.57
2024-02-24T04:03:26.888Z,980.51
2024-02-24T04:04:26.881Z,980.65
2024-02-24T04:05:26.946Z,980.58
2024-02-24T04:06:26.884Z,980.61
2024-02-24T04:07:26.822Z,980.56
2024-02-24T04:08:26.856Z,980.63
2024-02-24T04:09:26.885Z,980.62
2024-02-24T04:10:26.852Z,980.65
2024-02-24T04:11:26.857Z,980.65
2024-02-24T04:12:26.868Z,980.63
2024-02-24T04:13:26.794Z,980.58
2024-02-24T04:14:26.855Z,980.61
2024-02-24T04:15:26.806Z,980.56
2024-02-24T04:16:26.768Z,980.58
2024-02-24T04:17:26.777Z,980.53
2024-02-24T04:18:26.851Z,980.51
2024-02-24T04:19:26.857Z,980.60
2024-02-24T04:20:26.820Z,980.55
2024-02-24T04:21:26.763Z,980.56
2024-02-24T04:22:26.754Z,980.55
2024-02-24T04:23:26.785Z,980.58
2024-02-24T04:24:26.734Z,980.60
2024-02-24T04:25:26.721Z,980.57
2024-02-24T04:26:26.798Z,980.57
2024-02-24T04:27:26.718Z,980.57
2024-02-24T04:28:26.783Z,980.59
2024-02-24T04:29:26.719Z,980.64
2024-02-24T04:30:27.254Z,980.66
2024-02-24T04:31:26.748Z,980.63
2024-02-24T04:32:26.815Z,980.65
2024-02-24T04:33:27.308Z,980.69
2024-02-24T04:34:26.723Z,980.70
2024-02-24T04:35:26.780Z,980.68
2024-02-24T04:36:26.649Z,980.69
2024-02-24T04:37:26.696Z,980.72
2024-02-24T04:38:26.637Z,980.71
2024-02-24T04:39:26.677Z,980.73
2024-02-24T04:40:26.659Z,980.72
2024-02-24T04:41:26.724Z,980.73
2024-02-24T04:42:26.609Z,980.81
2024-02-24T04:43:26.612Z,980.83
2024-02-24T04:44:26.606Z,980.83
2024-02-24T04:45:26.619Z,980.77
2024-02-24T04:46:26.578Z,980.76
2024-02-24T04:47:26.669Z,980.75
2024-02-24T04:48:26.661Z,980.80
2024-02-24T04:49:26.576Z,980.84
2024-02-24T04:50:26.704Z,980.78
2024-02-24T04:51:26.552Z,980.86
2024-02-24T04:52:26.537Z,980.90
2024-02-24T04:53:26.562Z,980.84
2024-02-24T04:54:26.519Z,980.92
2024-02-24T04:55:26.565Z,980.86
2024-02-24T04:56:26.552Z,980.93
2024-02-24T04:57:26.509Z,980.93
2024-02-24T04:58:26.557Z,980.98
2024-02-24T04:59:26.605Z,980.95
2024-02-24T05:00:26.514Z,980.97
2024-02-24T05:01:26.533Z,981.01
2024-02-24T05:02:26.557Z,981.01
2024-02-24T05:03:26.539Z,981.09
2024-02-24T05:04:26.575Z,981.09
2024-02-24T05:05:26.490Z,981.04
2024-02-24T05:06:26.547Z,981.08
2024-02-24T05:07:26.468Z,981.10
2024-02-24T05:08:26.510Z,981.11
2024-02-24T05:09:26.531Z,981.05
2024-02-24T05:10:26.477Z,981.17
2024-02-24T05:11:26.529Z,981.20
2024-02-24T05:12:26.992Z,981.17
2024-02-24T05:13:26.416Z,981.10
2024-02-24T05:14:26.401Z,981.12
2024-02-24T05:15:26.411Z,981.15
2024-02-24T05:16:26.402Z,981.18
2024-02-24T05:17:26.396Z,981.13
2024-02-24T05:18:26.524Z,981.19
2024-02-24T05:19:26.410Z,981.15
2024-02-24T05:20:26.454Z,981.20
2024-02-24T05:21:26.420Z,981.18
2024-02-24T05:22:26.353Z,981.19
2024-02-24T05:23:26.397Z,981.17
2024-02-24T05:24:26.370Z,981.18
2024-02-24T05:25:26.341Z,981.25
2024-02-24T05:26:26.371Z,981.30
2024-02-24T05:27:26.377Z,981.31
2024-02-24T05:28:26.296Z,981.29
2024-02-24T05:29:26.353Z,981.25
2024-02-24T05:30:26.313Z,981.31
2024-02-24T05:31:26.285Z,981.30
2024-02-24T05:32:26.425Z,981.21
2024-02-24T05:33:26.512Z,981.25
2024-02-24T05:34:26.444Z,981.26
2024-02-24T05:35:26.283Z,981.24
2024-02-24T05:36:26.271Z,981.29
2024-02-24T05:37:26.283Z,981.28
2024-02-24T05:38:26.290Z,981.27
2024-02-24T05:39:26.272Z,981.27
2024-02-24T05:40:26.253Z,981.31
2024-02-24T05:41:26.259Z,981.29
2024-02-24T05:42:26.210Z,981.35
2024-02-24T05:43:26.222Z,981.33
2024-02-24T05:44:26.300Z,981.31
2024-02-24T05:45:26.198Z,981.31
2024-02-24T05:46:26.242Z,981.36
2024-02-24T05:47:26.290Z,981.31
2024-02-24T05:48:26.246Z,981.22
2024-02-24T05:49:26.253Z,981.31
2024-02-24T05:50:26.226Z,981.35
2024-02-24T05:51:26.249Z,981.37
2024-02-24T05:52:26.172Z,981.37
2024-02-24T05:53:26.175Z,981.41
2024-02-24T05:54:26.186Z,981.45
2024-02-24T05:55:26.147Z,981.46
2024-02-24T05:56:26.187Z,981.51
2024-02-24T05:57:26.147Z,981.45
2024-02-24T05:58:27.753Z,981.50
2024-02-24T05:59:26.187Z,981.50
2024-02-24T06:00:26.161Z,981.52
2024-02-24T06:01:26.095Z,981.54
2024-02-24T06:02:26.166Z,981.57
2024-02-24T06:03:26.188Z,981.58
2024-02-24T06:04:26.094Z,981.57
2024-02-24T06:05:26.130Z,981.52
2024-02-24T06:06:26.186Z,981.51
2024-02-24T06:07:26.108Z,981.58
2024-02-24T06:08:26.128Z,981.54
2024-02-24T06:09:26.081Z,981.54
2024-02-24T06:10:26.058Z,981.55
2024-02-24T06:11:26.143Z,981.60
2024-02-24T06:12:26.060Z,981.56
2024-02-24T06:13:26.065Z,981.61
2024-02-24T06:14:26.041Z,981.54
2024-02-24T06:15:26.073Z,981.55
2024-02-24T06:16:26.035Z,981.64
2024-02-24T06:17:26.048Z,981.60
2024-02-24T06:18:26.153Z,981.66
2024-02-24T06:19:26.009Z,981.66
2024-02-24T06:20:26.036Z,981.70
2024-02-24T06:21:26.069Z,981.73
2024-02-24T06:22:26.030Z,981.72
2024-02-24T06:23:26.068Z,981.68
2024-02-24T06:24:26.011Z,981.74
2024-02-24T06:25:25.991Z,981.70
2024-02-24T06:26:26.070Z,981.71
2024-02-24T06:27:25.962Z,981.64
2024-02-24T06:28:26.025Z,981.65
2024-02-24T06:29:26.019Z,981.64
2024-02-24T06:30:25.945Z,981.63
2024-02-24T06:31:25.995Z,981.71
2024-02-24T06:32:26.017Z,981.70
2024-02-24T06:33:26.077Z,981.66
2024-02-24T06:34:25.948Z,981.69
2024-02-24T06:35:26.929Z,981.71
2024-02-24T06:36:25.884Z,981.75
2024-02-24T06:37:25.921Z,981.75
2024-02-24T06:38:25.957Z,981.77
2024-02-24T06:39:25.954Z,981.74
2024-02-24T06:40:33.193Z,981.79
2024-02-24T06:41:28.880Z,981.78
2024-02-24T06:42:25.874Z,981.83
2024-02-24T06:43:25.861Z,981.82
2024-02-24T06:44:25.889Z,981.74
2024-02-24T06:45:25.923Z,981.72
2024-02-24T06:46:25.820Z,981.81
2024-02-24T06:47:29.383Z,981.78
2024-02-24T06:48:25.932Z,981.75
2024-02-24T06:49:25.900Z,981.76
2024-02-24T06:50:25.894Z,981.80
2024-02-24T06:51:25.816Z,981.79
2024-02-24T06:52:25.858Z,981.83
2024-02-24T06:53:25.823Z,981.87
2024-02-24T06:54:25.803Z,981.96
2024-02-24T06:55:25.799Z,981.92
2024-02-24T06:56:25.792Z,981.94
2024-02-24T06:57:25.776Z,981.96
2024-02-24T06:58:25.814Z,982.00
2024-02-24T06:59:25.835Z,981.97
2024-02-24T07:00:25.780Z,981.93
2024-02-24T07:01:25.777Z,981.94
2024-02-24T07:02:25.819Z,981.95
2024-02-24T07:03:25.873Z,982.00
2024-02-24T07:04:25.715Z,981.97
2024-02-24T07:05:25.845Z,982.07
2024-02-24T07:06:27.272Z,982.04
2024-02-24T07:07:25.738Z,982.09
2024-02-24T07:08:25.739Z,982.09
2024-02-24T07:09:25.725Z,982.10
2024-02-24T07:10:25.730Z,982.13
2024-02-24T07:11:25.749Z,982.11
2024-02-24T07:12:25.729Z,982.24
2024-02-24T07:13:25.702Z,982.19
2024-02-24T07:14:25.704Z,982.17
2024-02-24T07:15:26.731Z,982.24
2024-02-24T07:16:25.658Z,982.19
2024-02-24T07:17:25.713Z,982.24
2024-02-24T07:18:25.808Z,982.25
2024-02-24T07:19:25.678Z,982.26
2024-02-24T07:20:25.676Z,982.23
2024-02-24T07:21:25.619Z,982.31
2024-02-24T07:22:25.637Z,982.31
2024-02-24T07:23:25.605Z,982.28
2024-02-24T07:24:25.605Z,982.30
2024-02-24T07:25:25.627Z,982.38
2024-02-24T07:26:25.666Z,982.35
2024-02-24T07:27:25.627Z,982.34
2024-02-24T07:28:25.589Z,982.35
2024-02-24T07:29:25.609Z,982.41
2024-02-24T07:30:25.599Z,982.41
2024-02-24T07:31:25.551Z,982.46
2024-02-24T07:32:25.588Z,982.41
2024-02-24T07:33:25.669Z,982.43
2024-02-24T07:34:25.664Z,982.48
2024-02-24T07:35:25.613Z,982.47
2024-02-24T07:36:25.559Z,982.44
2024-02-24T07:37:25.536Z,982.42
2024-02-24T07:38:25.553Z,982.44
2024-02-24T07:39:25.533Z,982.46
2024-02-24T07:40:25.515Z,982.47
2024-02-24T07:41:25.516Z,982.48
2024-02-24T07:42:25.485Z,982.52
2024-02-24T07:43:25.515Z,982.44
2024-02-24T07:44:25.552Z,982.56
2024-02-24T07:45:25.475Z,982.51
2024-02-24T07:46:26.233Z,982.53
2024-02-24T07:47:25.542Z,982.53
2024-02-24T07:48:25.516Z,982.54
2024-02-24T07:49:25.510Z,982.58
2024-02-24T07:50:25.600Z,982.64
2024-02-24T07:51:25.477Z,982.59
2024-02-24T07:52:25.438Z,982.60
2024-02-24T07:53:25.445Z,982.68
2024-02-24T07:54:25.415Z,982.63
2024-02-24T07:55:25.432Z,982.70
2024-02-24T07:56:25.481Z,982.79
2024-02-24T07:57:25.530Z,982.61
2024-02-24T07:58:25.391Z,982.62
2024-02-24T07:59:25.517Z,982.60
2024-02-24T08:00:25.388Z,982.63
2024-02-24T08:01:26.403Z,982.82
2024-02-24T08:02:26.500Z,982.67
2024-02-24T08:03:26.214Z,982.68
2024-02-24T08:04:25.419Z,982.67
2024-02-24T08:05:25.411Z,982.71
2024-02-24T08:06:25.461Z,982.65
2024-02-24T08:07:25.448Z,982.75
2024-02-24T08:08:25.400Z,982.81
2024-02-24T08:09:25.454Z,982.84
2024-02-24T08:10:25.327Z,982.83
2024-02-24T08:11:25.534Z,982.86
2024-02-24T08:12:25.525Z,982.91
2024-02-24T08:13:25.299Z,982.89
2024-02-24T08:14:25.357Z,982.89
2024-02-24T08:15:25.295Z,982.92
2024-02-24T08:16:25.349Z,982.97
2024-02-24T08:17:25.378Z,982.98
2024-02-24T08:18:26.410Z,982.97
2024-02-24T08:19:25.332Z,982.91
2024-02-24T08:20:25.374Z,982.98
2024-02-24T08:21:25.285Z,982.88
2024-02-24T08:22:25.261Z,982.90
2024-02-24T08:23:26.260Z,982.88
2024-02-24T08:24:25.253Z,982.91
2024-02-24T08:25:25.231Z,982.87
2024-02-24T08:26:25.282Z,982.93
2024-02-24T08:27:25.218Z,983.01
2024-02-24T08:28:25.550Z,982.96
2024-02-24T08:29:25.252Z,982.98
2024-02-24T08:30:26.256Z,983.01
2024-02-24T08:31:25.201Z,982.97
2024-02-24T08:32:25.288Z,982.98
2024-02-24T08:33:26.803Z,982.93
2024-02-24T08:34:25.183Z,983.02
2024-02-24T08:35:25.256Z,982.98
2024-02-24T08:36:25.293Z,982.90
2024-02-24T08:37:25.521Z,982.90
2024-02-24T08:38:25.206Z,982.91
2024-02-24T08:39:25.180Z,982.95
2024-02-24T08:40:26.666Z,982.96
2024-02-24T08:41:25.157Z,982.99
2024-02-24T08:42:25.173Z,983.00
2024-02-24T08:43:25.195Z,983.01
2024-02-24T08:44:25.189Z,982.95
2024-02-24T08:45:25.213Z,983.02
2024-02-24T08:46:25.507Z,983.01
2024-02-24T08:47:25.195Z,982.99
2024-02-24T08:48:25.153Z,983.07
2024-02-24T08:49:25.160Z,983.08
2024-02-24T08:50:25.152Z,983.03
2024-02-24T08:51:25.070Z,983.08
2024-02-24T08:52:32.807Z,983.03
2024-02-24T08:53:27.080Z,983.08
2024-02-24T08:54:25.067Z,983.06
2024-02-24T08:55:25.068Z,983.08
2024-02-24T08:56:25.102Z,983.03
2024-02-24T08:57:25.049Z,983.04
2024-02-24T08:58:25.057Z,983.07
2024-02-24T08:59:25.070Z,983.02
2024-02-24T09:00:25.068Z,983.02
2024-02-24T09:01:25.164Z,983.02
2024-02-24T09:02:25.046Z,982.95
2024-02-24T09:03:25.398Z,982.96
2024-02-24T09:04:26.002Z,982.96
2024-02-24T09:05:25.105Z,982.95
2024-02-24T09:06:25.180Z,983.03
2024-02-24T09:07:25.096Z,983.03
2024-02-24T09:08:25.004Z,982.96
2024-02-24T09:09:24.985Z,983.07
2024-02-24T09:10:25.598Z,983.05
2024-02-24T09:11:25.068Z,983.09
2024-02-24T09:12:25.050Z,983.03
2024-02-24T09:13:25.961Z,983.05
2024-02-24T09:14:25.023Z,983.04
2024-02-24T09:15:24.932Z,983.06
2024-02-24T09:16:24.935Z,983.13
2024-02-24T09:17:25.003Z,983.08
2024-02-24T09:18:25.067Z,983.19
2024-02-24T09:19:24.938Z,983.09
2024-02-24T09:20:24.983Z,983.15
2024-02-24T09:21:24.919Z,983.04
2024-02-24T09:22:24.939Z,983.15
2024-02-24T09:23:24.988Z,983.11
2024-02-24T09:24:24.903Z,983.14
2024-02-24T09:25:24.877Z,983.14
2024-02-24T09:26:24.906Z,983.14
2024-02-24T09:27:24.971Z,983.18
2024-02-24T09:28:24.908Z,983.18
2024-02-24T09:29:24.961Z,983.05
2024-02-24T09:30:24.892Z,983.09
2024-02-24T09:31:24.865Z,983.18
2024-02-24T09:32:24.943Z,983.14
2024-02-24T09:33:24.994Z,983.18
2024-02-24T09:34:24.941Z,983.22
2024-02-24T09:35:24.823Z,983.17
2024-02-24T09:36:24.802Z,983.21
2024-02-24T09:37:24.941Z,983.24
2024-02-24T09:38:24.840Z,983.27
2024-02-24T09:39:24.804Z,983.30
2024-02-24T09:40:24.784Z,983.26
2024-02-24T09:41:24.824Z,983.28
2024-02-24T09:42:24.821Z,983.29
2024-02-24T09:43:24.770Z,983.18
2024-02-24T09:44:26.523Z,983.24
2024-02-24T09:45:24.810Z,983.21
2024-02-24T09:46:24.757Z,983.22
2024-02-24T09:47:24.794Z,983.22
2024-02-24T09:48:24.962Z,983.24
2024-02-24T09:49:24.751Z,983.18
2024-02-24T09:50:25.783Z,983.25
2024-02-24T09:51:24.716Z,983.20
2024-02-24T09:52:24.792Z,983.27
2024-02-24T09:53:24.775Z,983.25
2024-02-24T09:54:24.693Z,983.22
2024-02-24T09:55:24.747Z,983.19
2024-02-24T09:56:24.783Z,983.19
2024-02-24T09:57:24.667Z,983.20
2024-02-24T09:58:24.694Z,983.25
2024-02-24T09:59:24.723Z,983.24
2024-02-24T10:00:24.669Z,983.19
2024-02-24T10:01:24.726Z,983.27
2024-02-24T10:02:24.695Z,983.28
2024-02-24T10:03:24.689Z,983.23
2024-02-24T10:04:24.644Z,983.19
2024-02-24T10:05:24.768Z,983.22
2024-02-24T10:06:24.764Z,983.23
2024-02-24T10:07:25.279Z,983.22
2024-02-24T10:08:24.636Z,983.22
2024-02-24T10:09:24.594Z,983.23
2024-02-24T10:10:24.619Z,983.22
2024-02-24T10:11:24.691Z,983.27
2024-02-24T10:12:24.606Z,983.34
2024-02-24T10:13:24.578Z,983.32
2024-02-24T10:14:24.635Z,983.43
2024-02-24T10:15:24.621Z,983.42
2024-02-24T10:16:24.591Z,983.54
2024-02-24T10:17:24.607Z,983.48
2024-02-24T10:18:24.625Z,983.52
2024-02-24T10:19:26.409Z,983.62
2024-02-24T10:20:25.579Z,983.55
2024-02-24T10:21:24.735Z,983.56
2024-02-24T10:22:26.539Z,983.66
2024-02-24T10:23:24.588Z,983.54
2024-02-24T10:24:24.513Z,983.60
2024-02-24T10:25:24.638Z,983.71
2024-02-24T10:26:24.544Z,983.69
2024-02-24T10:27:24.500Z,983.66
2024-02-24T10:28:24.490Z,983.76
2024-02-24T10:29:24.527Z,983.70
2024-02-24T10:30:26.203Z,983.89
2024-02-24T10:31:24.518Z,983.80
2024-02-24T10:32:24.515Z,983.68
2024-02-24T10:33:24.765Z,983.74
2024-02-24T10:34:24.487Z,983.81
2024-02-24T10:35:24.544Z,983.75
2024-02-24T10:36:24.494Z,983.75
2024-02-24T10:37:24.442Z,983.80
2024-02-24T10:38:34.418Z,983.82
2024-02-24T10:39:25.496Z,983.85
2024-02-24T10:40:25.268Z,983.86
2024-02-24T10:41:29.252Z,983.81
2024-02-24T10:42:24.412Z,984.01
2024-02-24T10:43:25.216Z,983.87
2024-02-24T10:44:24.422Z,983.87
2024-02-24T10:45:24.388Z,983.89
2024-02-24T10:46:24.395Z,983.86
2024-02-24T10:47:24.384Z,983.83
2024-02-24T10:48:24.477Z,983.92
2024-02-24T10:49:24.558Z,983.87
2024-02-24T10:50:24.376Z,983.86
2024-02-24T10:51:24.382Z,983.93
2024-02-24T10:52:24.346Z,983.91
2024-02-24T10:53:24.530Z,983.93
2024-02-24T10:54:24.351Z,983.92
2024-02-24T10:55:24.344Z,983.96
2024-02-24T10:56:24.362Z,983.89
2024-02-24T10:57:24.319Z,983.98
2024-02-24T10:58:24.318Z,983.89
2024-02-24T10:59:24.371Z,984.03
2024-02-24T11:00:24.348Z,984.04
2024-02-24T11:01:24.334Z,984.02
2024-02-24T11:02:24.366Z,984.09
2024-02-24T11:03:24.269Z,984.19
2024-02-24T11:04:24.280Z,984.04
2024-02-24T11:05:24.289Z,984.13
2024-02-24T11:06:24.301Z,984.10
2024-02-24T11:07:24.497Z,984.12
2024-02-24T11:08:24.257Z,984.19
2024-02-24T11:09:24.249Z,984.15
2024-02-24T11:10:24.322Z,984.13
2024-02-24T11:11:24.272Z,984.17
2024-02-24T11:12:24.648Z,984.18
2024-02-24T11:13:24.244Z,984.21
2024-02-24T11:14:24.242Z,984.25
2024-02-24T11:15:24.201Z,984.27
2024-02-24T11:16:24.209Z,984.21
2024-02-24T11:17:24.208Z,984.15
2024-02-24T11:18:24.284Z,984.18
2024-02-24T11:19:24.212Z,984.20
2024-02-24T11:20:24.207Z,984.17
2024-02-24T11:21:24.153Z,984.23
2024-02-24T11:22:24.236Z,984.21
2024-02-24T11:23:24.273Z,984.25
2024-02-24T11:24:24.143Z,984.16
2024-02-24T11:25:24.182Z,984.29
2024-02-24T11:26:24.193Z,984.20
2024-02-24T11:27:24.164Z,984.22
2024-02-24T11:28:24.137Z,984.23
2024-02-24T11:29:24.825Z,984.21
2024-02-24T11:30:24.164Z,984.25
2024-02-24T11:31:26.040Z,984.27
2024-02-24T11:32:25.224Z,984.25
2024-02-24T11:33:24.350Z,984.25
2024-02-24T11:34:24.192Z,984.35
2024-02-24T11:35:25.540Z,984.41
2024-02-24T11:36:24.104Z,984.26
2024-02-24T11:37:24.100Z,984.37
2024-02-24T11:38:24.160Z,984.37
2024-02-24T11:39:25.847Z,984.28
2024-02-24T11:40:24.051Z,984.38
2024-02-24T11:41:24.090Z,984.60
2024-02-24T11:42:24.029Z,984.56
2024-02-24T11:43:24.032Z,984.52
2024-02-24T11:44:27.798Z,984.08
2024-02-24T11:45:24.036Z,984.11
2024-02-24T11:46:24.022Z,984.09
2024-02-24T11:47:27.884Z,984.42
2024-02-24T11:48:24.269Z,984.34
2024-02-24T11:49:24.040Z,984.32
2024-02-24T11:50:24.073Z,984.25
2024-02-24T11:51:24.023Z,984.10
2024-02-24T11:52:23.985Z,984.20
2024-02-24T11:53:23.996Z,984.22
2024-02-24T11:54:23.993Z,984.25
2024-02-24T11:55:24.079Z,984.41
2024-02-24T11:56:24.008Z,984.25
2024-02-24T11:57:25.006Z,984.29
2024-02-24T11:58:24.029Z,984.54
2024-02-24T11:59:23.943Z,984.41
2024-02-24T12:00:23.975Z,984.17
2024-02-24T12:01:24.014Z,984.45
2024-02-24T12:02:23.963Z,984.68
2024-02-24T12:03:25.538Z,984.20
2024-02-24T12:04:24.939Z,984.56
2024-02-24T12:05:23.981Z,984.23
2024-02-24T12:06:23.971Z,984.17
2024-02-24T12:07:23.966Z,983.94
2024-02-24T12:08:23.909Z,984.18
2024-02-24T12:09:23.889Z,984.22
2024-02-24T12:10:23.883Z,984.21
2024-02-24T12:11:23.942Z,984.22
2024-02-24T12:12:23.960Z,984.13
2024-02-24T12:13:23.841Z,984.13
2024-02-24T12:14:23.864Z,984.13
2024-02-24T12:15:23.816Z,984.21
2024-02-24T12:16:23.845Z,984.13
2024-02-24T12:17:23.932Z,984.22
2024-02-24T12:18:24.262Z,984.31
2024-02-24T12:19:23.860Z,984.44
2024-02-24T12:20:23.814Z,984.67
2024-02-24T12:21:23.801Z,984.11
2024-02-24T12:22:23.778Z,984.38
2024-02-24T12:23:23.813Z,984.25
2024-02-24T12:24:23.776Z,984.25
2024-02-24T12:25:23.888Z,984.28
2024-02-24T12:26:23.794Z,984.62
2024-02-24T12:27:23.763Z,984.72
2024-02-24T12:28:23.782Z,984.26